Time;durP1;ratioP1;P1;durP2;ratioP2;P2;SDS_P1;SDS_P2;PMS_P1;PMS_P2;Temp;Humidity;BMP_temperature;BMP_pressure;BME280_temperature;BME280_humidity;BME280_pressure;Samples;Min_cycle;Max_cycle;Signal;HPM_P1;HPM_P2
2024/01/10 09:31:10;1446906.00;4.82;2543.61;28913.00;0.10;50.70;;;;;6.30;1.00;;;;;;2514491;55;3745;31
2024/01/10 10:04:15;1054689.00;3.52;1829.58;0.00;0.00;0.62;;;;;4.90;1.00;;;;;;2270756;61;984;-91
2024/01/10 10:11:55;935316.00;3.12;1618.23;0.00;0.00;0.62;;;;;3.50;1.00;;;;;;2275035;61;1311;-93
2024/01/10 13:16:51;836677.00;2.79;1445.17;0.00;0.00;0.62;;;;;6.00;1.00;;;;;;2275131;61;1875;-93
2024/01/10 15:56:02;1133502.00;3.78;1970.44;102117.00;0.34;177.23;;;;;3.40;1.00;;;;;;2273938;61;1895;-87
2024/01/10 16:03:36;1347602.00;4.49;2359.49;119218.00;0.40;206.73;;;;;3.80;1.00;;;;;;2273713;61;1420;-89
2024/01/10 16:06:03;1216014.00;4.05;2119.20;144982.00;0.48;251.16;;;;;4.00;1.00;;;;;;2272251;61;932;-87
2024/01/10 16:08:30;1244828.00;4.15;2171.48;151421.00;0.50;262.26;;;;;3.80;1.00;;;;;;2272165;61;1912;-87
2024/01/10 16:10:57;961512.00;3.21;1664.42;102773.00;0.34;178.36;;;;;3.70;1.00;;;;;;2271795;61;1312;-86
2024/01/10 16:13:26;1273690.00;4.25;2224.03;149352.00;0.50;258.69;;;;;3.60;1.00;;;;;;2271988;61;1083;-87
2024/01/10 16:15:55;1395600.00;4.65;2448.17;134447.00;0.45;233.00;;;;;3.70;1.00;;;;;;2272143;61;2007;-87
2024/01/10 16:18:23;950514.00;3.17;1645.02;97102.00;0.32;168.57;;;;;3.80;1.00;;;;;;2272239;61;1138;-88
2024/01/10 16:20:51;894682.00;2.98;1546.78;95700.00;0.32;166.15;;;;;4.20;1.00;;;;;;2272271;61;1367;-87
2024/01/10 16:23:18;888988.00;2.96;1536.79;94563.00;0.32;164.19;;;;;4.60;1.00;;;;;;2287585;39;3562;-88
2024/01/10 16:25:45;956892.00;3.19;1656.27;88219.00;0.29;153.23;;;;;4.60;1.00;;;;;;2277582;61;1113;-87
2024/01/10 16:28:12;1282709.00;4.28;2240.50;114507.00;0.38;198.61;;;;;4.80;1.00;;;;;;2276947;61;973;-86
2024/01/10 16:30:40;779856.00;2.60;1346.01;103523.00;0.35;179.65;;;;;4.90;1.00;;;;;;2276864;61;1550;-88
2024/01/10 16:33:08;931908.00;3.11;1612.23;108543.00;0.36;188.32;;;;;5.10;1.00;;;;;;2276856;61;1569;-87
2024/01/10 16:35:35;732866.00;2.44;1264.28;90194.00;0.30;156.64;;;;;5.20;1.00;;;;;;2276966;61;1257;-87
2024/01/10 16:38:02;816406.00;2.72;1409.75;114049.00;0.38;197.82;;;;;5.20;1.00;;;;;;2276833;61;1030;-87
2024/01/10 16:40:29;930830.00;3.10;1610.33;116741.00;0.39;202.46;;;;;5.50;1.00;;;;;;2276773;61;1580;-88
2024/01/10 16:42:56;1216032.00;4.05;2119.23;108729.00;0.36;188.64;;;;;5.20;1.00;;;;;;2276923;61;1082;-88
2024/01/10 16:45:23;1421761.00;4.74;2496.74;166353.00;0.55;287.98;;;;;4.90;1.00;;;;;;2276844;61;1670;-88
2024/01/10 16:47:51;933377.00;3.11;1614.82;104461.00;0.35;181.27;;;;;4.60;1.00;;;;;;2276850;61;998;-87
2024/01/10 16:50:18;1029110.00;3.43;1784.10;142905.00;0.48;247.58;;;;;4.60;1.00;;;;;;2276718;61;1369;-89
2024/01/10 16:52:45;1048853.00;3.50;1819.19;93757.00;0.31;162.79;;;;;4.40;1.00;;;;;;2276744;61;2451;-86
2024/01/10 16:55:14;1337357.00;4.46;2340.64;133548.00;0.45;231.45;;;;;4.30;1.00;;;;;;2276857;61;1078;-88
2024/01/10 16:57:41;1062296.00;3.54;1843.13;103647.00;0.35;179.87;;;;;4.20;1.00;;;;;;2276696;61;2005;-89
2024/01/10 17:00:10;817437.00;2.72;1411.55;99808.00;0.33;173.24;;;;;4.40;1.00;;;;;;2276641;61;1384;-88
2024/01/10 17:02:37;655445.00;2.18;1130.06;99703.00;0.33;173.06;;;;;4.90;1.00;;;;;;2276662;61;1221;-88
2024/01/10 17:05:08;790290.00;2.63;1364.19;138858.00;0.46;240.60;;;;;5.40;1.00;;;;;;2276658;61;987;-86
2024/01/10 17:07:35;712095.00;2.37;1228.22;110035.00;0.37;190.89;;;;;5.10;1.00;;;;;;2276660;61;1054;-88
2024/01/10 17:10:03;806941.00;2.69;1393.23;86809.00;0.29;150.80;;;;;5.10;1.00;;;;;;2276484;61;1373;-88
2024/01/10 17:12:30;1144645.00;3.82;1990.45;84103.00;0.28;146.12;;;;;4.60;1.00;;;;;;2276597;61;1699;-86
2024/01/10 17:14:57;813360.00;2.71;1404.43;103577.00;0.35;179.75;;;;;4.40;1.00;;;;;;2276693;61;1031;-86
2024/01/10 17:17:24;692893.00;2.31;1194.92;94721.00;0.32;164.46;;;;;4.40;1.00;;;;;;2276689;61;1911;-87
2024/01/10 17:19:51;478314.00;1.59;824.50;99897.00;0.33;173.39;;;;;4.40;1.00;;;;;;2276642;61;1888;-88
2024/01/10 17:22:19;707660.00;2.36;1220.52;83059.00;0.28;144.32;;;;;4.80;1.00;;;;;;2276642;61;1050;-84
2024/01/10 17:24:46;749800.00;2.50;1293.71;100557.00;0.34;174.53;;;;;4.60;1.00;;;;;;2276560;61;1116;-87
2024/01/10 17:27:13;539015.00;1.80;929.03;100771.00;0.34;174.90;;;;;4.90;1.00;;;;;;2276694;61;1009;-86
2024/01/10 17:29:41;396304.00;1.32;683.45;100919.00;0.34;175.16;;;;;5.20;1.00;;;;;;2276611;61;2116;-87
2024/01/10 17:32:08;583730.00;1.95;1006.14;89183.00;0.30;154.90;;;;;5.20;1.00;;;;;;2276671;61;911;-86
2024/01/10 17:34:35;636714.00;2.12;1097.66;100507.00;0.34;174.45;;;;;4.70;1.00;;;;;;2276576;61;910;-87
2024/01/10 17:37:03;655829.00;2.19;1130.72;96437.00;0.32;167.42;;;;;4.50;1.00;;;;;;2276792;61;1998;-86
2024/01/10 17:39:31;944067.00;3.15;1633.65;96868.00;0.32;168.17;;;;;4.70;1.00;;;;;;2276602;61;1399;-87
2024/01/10 17:41:58;832489.00;2.77;1437.84;111025.00;0.37;192.60;;;;;4.70;1.00;;;;;;2276728;61;977;-88
2024/01/10 17:44:25;718139.00;2.39;1238.71;101796.00;0.34;176.67;;;;;4.80;1.00;;;;;;2276596;61;1047;-87
2024/01/10 17:46:52;621453.00;2.07;1071.28;95872.00;0.32;166.45;;;;;4.80;1.00;;;;;;2276609;61;935;-88
2024/01/10 17:49:19;658584.00;2.20;1135.49;94444.00;0.31;163.98;;;;;5.10;1.00;;;;;;2276539;61;1594;-89
2024/01/10 17:51:46;708169.00;2.36;1221.41;85429.00;0.28;148.41;;;;;5.90;1.00;;;;;;2274456;61;1671;-88
2024/01/10 17:54:12;585156.00;1.95;1008.60;99589.00;0.33;172.86;;;;;5.90;1.00;;;;;;2272588;61;1094;-89
2024/01/10 17:56:41;790216.00;2.63;1364.07;105058.00;0.35;182.30;;;;;5.60;1.00;;;;;;2272568;61;1915;-87
2024/01/10 17:59:08;352125.00;1.17;607.51;86906.00;0.29;150.96;;;;;5.50;1.00;;;;;;2272619;61;1078;-87
2024/01/10 18:01:35;639669.00;2.13;1102.77;94869.00;0.32;164.71;;;;;5.90;1.00;;;;;;2272472;61;1149;-89
2024/01/10 18:04:01;361357.00;1.20;623.38;90881.00;0.30;157.83;;;;;6.40;1.00;;;;;;2272570;61;1650;-87
2024/01/10 18:06:28;552934.00;1.84;953.02;99077.00;0.33;171.98;;;;;6.70;1.00;;;;;;2272523;61;1616;-87
2024/01/10 18:08:55;643788.00;2.15;1109.89;86025.00;0.29;149.44;;;;;6.60;1.00;;;;;;2272642;61;1103;-88
2024/01/10 18:11:22;707476.00;2.36;1220.21;135616.00;0.45;235.01;;;;;6.10;1.00;;;;;;2272402;61;1393;-87
2024/01/10 18:13:50;462773.00;1.54;797.76;88410.00;0.29;153.56;;;;;5.80;1.00;;;;;;2272670;61;948;-90
2024/01/10 18:16:17;463513.00;1.55;799.03;106466.00;0.35;184.73;;;;;6.20;1.00;;;;;;2272532;61;1919;-92
2024/01/10 18:18:44;444844.00;1.48;766.91;102639.00;0.34;178.13;;;;;6.60;1.00;;;;;;2272544;61;1071;-88
2024/01/10 18:21:11;712532.00;2.38;1228.98;93987.00;0.31;163.19;;;;;6.90;1.00;;;;;;2275356;61;1711;-86
2024/01/10 18:23:38;604617.00;2.02;1042.19;86943.00;0.29;151.03;;;;;6.30;1.00;;;;;;2276504;61;1034;-88
2024/01/10 18:36:19;1281607.00;4.27;2238.48;0.00;0.00;0.62;;;;;6.20;1.00;;;;;;2273861;61;1887;-88
2024/01/10 19:06:35;457011.00;1.52;787.84;0.00;0.00;0.62;;;;;7.20;1.00;;;;;;2274965;61;1336;-91
2024/01/10 19:21:35;613880.00;2.05;1058.19;0.00;0.00;0.62;;;;;6.20;1.00;;;;;;2270284;61;1330;-92
2024/01/10 19:26:36;756975.00;2.52;1306.19;0.00;0.00;0.62;;;;;6.30;1.00;;;;;;2274449;61;1332;-92
2024/01/10 19:29:03;207527.00;0.69;358.88;0.00;0.00;0.62;;;;;6.40;1.00;;;;;;2272930;61;1047;-89
2024/01/10 19:31:30;319488.00;1.06;551.42;0.00;0.00;0.62;;;;;6.50;1.00;;;;;;2272871;61;1276;-88
2024/01/10 19:46:36;694319.00;2.31;1197.39;0.00;0.00;0.62;;;;;7.00;1.00;;;;;;2274413;61;1341;-89
2024/01/10 20:01:30;1100022.00;3.67;1910.46;0.00;0.00;0.62;;;;;7.30;1.00;;;;;;841560;40;3421;-89
2024/01/10 20:14:30;570941.00;1.90;984.07;114600.00;0.38;198.77;;;;;7.60;1.00;;;;;;2303734;39;3513;-87
2024/01/10 20:19:29;1133923.00;3.78;1971.20;124304.00;0.41;215.51;;;;;7.60;1.00;;;;;;2268882;61;1423;-88
2024/01/10 20:34:24;1055074.00;3.52;1830.26;99100.00;0.33;172.02;;;;;7.70;1.00;;;;;;2270466;61;1317;-89
2024/01/10 20:36:51;831675.00;2.77;1436.42;99689.00;0.33;173.04;;;;;7.70;1.00;;;;;;2267813;61;2014;-88
2024/01/10 20:41:46;842232.00;2.81;1454.88;107608.00;0.36;186.70;;;;;7.60;1.00;;;;;;2270253;61;1316;-90
2024/01/10 20:44:13;608241.00;2.03;1048.45;93992.00;0.31;163.20;;;;;7.60;1.00;;;;;;2267860;61;1634;-91
2024/01/10 21:11:58;1515126.00;5.05;2671.61;46499.00;0.15;81.13;;;;;7.40;1.00;;;;;;2265801;61;1073;-89
2024/01/10 21:24:18;1673724.00;5.58;2974.48;72775.00;0.24;126.56;;;;;7.60;1.00;;;;;;2274250;61;1380;-87
2024/01/10 21:26:45;1557961.00;5.19;2752.67;187468.00;0.62;324.35;;;;;7.70;1.00;;;;;;2272599;61;1091;-90
2024/01/10 21:29:14;1580124.00;5.27;2794.81;140713.00;0.47;243.80;;;;;7.80;1.00;;;;;;2272589;61;1571;-89
2024/01/10 21:34:14;1451067.00;4.84;2551.38;54148.00;0.18;94.36;;;;;7.20;1.00;;;;;;2274454;61;1384;-89
2024/01/10 21:36:41;1345265.00;4.48;2355.19;41208.00;0.14;71.98;;;;;7.20;1.00;;;;;;2272568;61;2001;-88
2024/01/10 21:39:08;1385245.00;4.62;2428.99;44538.00;0.15;77.74;;;;;7.20;1.00;;;;;;2272664;61;1010;-88
2024/01/10 21:41:35;1532565.00;5.11;2704.55;98540.00;0.33;171.05;;;;;7.20;1.00;;;;;;2268489;61;1079;-89
2024/01/10 21:44:01;1636793.00;5.46;2903.26;22244.00;0.07;39.16;;;;;7.30;1.00;;;;;;2290022;40;3595;-92
2024/01/10 21:49:03;1708078.00;5.69;3041.13;55088.00;0.18;95.98;;;;;7.40;1.00;;;;;;2270509;61;1220;-90
2024/01/10 21:51:30;1924534.00;6.42;3470.50;72041.00;0.24;125.29;;;;;7.20;1.00;;;;;;2268541;61;1782;-91
2024/01/10 21:53:57;1433775.00;4.78;2519.11;46933.00;0.16;81.88;;;;;7.00;1.00;;;;;;2268484;61;1103;-89
2024/01/10 21:58:52;1666500.00;5.55;2960.52;34893.00;0.12;61.05;;;;;7.30;1.00;;;;;;2274110;61;1973;-89
2024/01/10 22:01:19;1474658.00;4.92;2595.52;58595.00;0.20;102.05;;;;;6.90;1.00;;;;;;2284756;39;3804;-88
2024/01/10 22:03:46;1314083.00;4.38;2297.90;85964.00;0.29;149.34;;;;;6.10;1.00;;;;;;2272392;61;1534;-88
2024/01/10 22:06:14;1612940.00;5.38;2857.49;59938.00;0.20;104.37;;;;;5.60;1.00;;;;;;2272437;61;943;-90
2024/01/10 22:08:43;1458189.00;4.86;2564.69;35633.00;0.12;62.33;;;;;5.60;1.00;;;;;;2275858;39;3578;-89
2024/01/10 22:13:40;1603883.00;5.35;2840.16;161948.00;0.54;280.40;;;;;5.90;1.00;;;;;;2274125;61;1301;-89
2024/01/10 22:18:36;1830604.00;6.10;3282.10;144673.00;0.48;250.63;;;;;5.60;1.00;;;;;;2273994;61;2035;-90
2024/01/10 22:23:34;1709464.00;5.70;3043.83;70551.00;0.24;122.71;;;;;5.60;1.00;;;;;;2273967;61;1349;-89
2024/01/10 22:26:01;1045941.00;3.49;1814.01;47575.00;0.16;82.99;;;;;5.90;1.00;;;;;;2272434;61;1545;-89
2024/01/10 22:28:28;1334797.00;4.45;2335.93;34163.00;0.11;59.79;;;;;6.20;1.00;;;;;;2272512;61;1594;-89
2024/01/10 22:35:52;1582336.00;5.27;2799.03;76886.00;0.26;133.66;;;;;6.70;1.00;;;;;;2274729;61;1306;-91
2024/01/10 22:38:19;1582467.00;5.27;2799.28;83651.00;0.28;145.34;;;;;6.90;1.00;;;;;;2273008;61;1911;-91
2024/01/10 22:48:14;1796064.00;5.99;3213.64;27671.00;0.09;48.55;;;;;6.50;1.00;;;;;;2278393;61;1183;-89
2024/01/10 22:50:41;1431384.00;4.77;2514.66;33904.00;0.11;59.34;;;;;6.40;1.00;;;;;;2289454;56;3717;-90
2024/01/10 23:00:56;335419.00;1.12;578.80;0.00;0.00;0.62;;;;;6.00;1.00;;;;;;2273584;61;1427;-89
2024/01/10 23:05:54;258151.00;0.86;445.97;0.00;0.00;0.62;;;;;6.60;1.00;;;;;;2273741;61;1396;-89
2024/01/10 23:23:22;311344.00;1.04;537.42;0.00;0.00;0.62;;;;;7.10;1.00;;;;;;2270200;61;1153;-90
2024/01/10 23:28:20;493201.00;1.64;850.12;25733.00;0.09;45.20;;;;;7.00;1.00;;;;;;2273667;61;1300;-91
2024/01/10 23:33:16;516483.00;1.72;890.21;0.00;0.00;0.62;;;;;6.60;1.00;;;;;;2273991;61;1412;-88
2024/01/10 23:38:17;418839.00;1.40;722.19;0.00;0.00;0.62;;;;;6.10;1.00;;;;;;2273896;61;1908;-90
2024/01/10 23:40:46;276281.00;0.92;477.14;0.00;0.00;0.62;;;;;6.20;1.00;;;;;;2272248;61;1390;-88
2024/01/10 23:43:14;99922.00;0.33;173.44;0.00;0.00;0.62;;;;;6.50;1.00;;;;;;2272192;61;1442;-88
2024/01/10 23:45:41;199004.00;0.66;344.21;12860.00;0.04;22.90;;;;;6.90;1.00;;;;;;2271987;61;1748;-88
